Time;durP1;ratioP1;P1;durP2;ratioP2;P2;SDS_P1;SDS_P2;PMS_P1;PMS_P2;Temp;Humidity;BMP_temperature;BMP_pressure;BME280_temperature;BME280_humidity;BME280_pressure;Samples;Min_cycle;Max_cycle;Signal;HPM_P1;HPM_P2
2021/04/07 00:00:57;;;;;;;9.40;5.20;;;0.40;99.90;;;;;;4158063;28;20341;-65
2021/04/07 00:02:59;;;;;;;7.80;4.57;;;0.40;99.90;;;;;;4157977;28;20324;-63
2021/04/07 00:05:08;;;;;;;9.33;4.90;;;0.40;99.90;;;;;;4157933;28;20278;-65
2021/04/07 00:07:09;;;;;;;9.50;5.43;;;0.40;99.90;;;;;;4157714;28;20298;-63
2021/04/07 00:09:11;;;;;;;6.93;4.37;;;0.40;99.90;;;;;;4158631;28;21171;-62
2021/04/07 00:11:12;;;;;;;9.07;5.73;;;0.40;99.90;;;;;;4158068;28;20271;-63
2021/04/07 00:13:14;;;;;;;10.80;5.37;;;0.50;99.90;;;;;;4157886;28;20270;-63
2021/04/07 00:15:19;;;;;;;11.90;5.70;;;0.50;99.90;;;;;;4156851;28;20290;-63
2021/04/07 00:17:21;;;;;;;9.33;4.77;;;0.60;99.90;;;;;;4157985;28;20263;-62
2021/04/07 00:19:22;;;;;;;9.60;5.50;;;0.60;99.90;;;;;;4157518;28;20313;-64
2021/04/07 00:21:23;;;;;;;8.90;4.23;;;0.60;99.90;;;;;;4157722;28;20759;-63
2021/04/07 00:23:24;;;;;;;8.23;4.17;;;0.50;99.90;;;;;;4158036;28;20670;-66
2021/04/07 00:25:26;;;;;;;10.10;5.07;;;0.50;99.90;;;;;;4158249;28;20282;-64
2021/04/07 00:27:28;;;;;;;8.70;4.87;;;0.60;99.90;;;;;;4156944;28;20263;-62
2021/04/07 00:29:29;;;;;;;9.53;4.63;;;0.50;99.90;;;;;;4158293;28;20267;-63
2021/04/07 00:31:30;;;;;;;9.67;4.50;;;0.50;99.90;;;;;;4156967;28;20263;-60
2021/04/07 00:33:31;;;;;;;10.80;6.10;;;0.60;99.90;;;;;;4157591;28;20270;-63
2021/04/07 00:35:33;;;;;;;10.87;5.10;;;0.60;99.90;;;;;;4156844;28;20302;-63
2021/04/07 00:37:37;;;;;;;9.27;5.47;;;0.60;99.90;;;;;;4156720;28;20267;-63
2021/04/07 00:39:38;;;;;;;11.87;6.67;;;0.70;99.90;;;;;;4157309;28;20769;-63
2021/04/07 00:41:39;;;;;;;14.10;5.40;;;0.70;99.90;;;;;;4157484;28;20308;-62
2021/04/07 00:43:40;;;;;;;13.17;6.57;;;0.60;99.90;;;;;;4157184;28;20841;-63
2021/04/07 00:45:41;;;;;;;12.00;6.00;;;0.60;99.90;;;;;;4157686;28;20349;-63
2021/04/07 00:47:43;;;;;;;10.70;5.77;;;0.60;99.90;;;;;;4157312;28;20342;-63
2021/04/07 00:49:44;;;;;;;15.57;6.30;;;0.60;99.90;;;;;;4157585;28;20309;-63
2021/04/07 00:51:46;;;;;;;11.00;5.97;;;0.60;99.90;;;;;;4157511;28;20291;-63
2021/04/07 00:53:47;;;;;;;10.73;5.67;;;0.60;99.90;;;;;;4156237;28;20974;-67
2021/04/07 00:55:49;;;;;;;10.43;6.00;;;0.60;99.90;;;;;;4157431;28;20345;-63
2021/04/07 00:57:51;;;;;;;9.50;5.20;;;0.60;99.90;;;;;;4156814;28;20274;-63
2021/04/07 00:59:53;;;;;;;10.53;5.17;;;0.60;99.90;;;;;;4157706;28;20667;-63
2021/04/07 01:01:55;;;;;;;17.17;7.87;;;0.60;99.90;;;;;;4156486;28;20356;-62
2021/04/07 01:03:56;;;;;;;11.23;5.80;;;0.60;99.90;;;;;;4156820;28;20282;-67
2021/04/07 01:05:58;;;;;;;14.30;7.30;;;0.60;99.90;;;;;;4156565;28;20263;-62
2021/04/07 01:07:59;;;;;;;8.37;5.37;;;0.60;99.90;;;;;;4156694;28;20325;-63
2021/04/07 01:10:01;;;;;;;9.07;4.30;;;0.60;99.90;;;;;;4156858;28;20317;-63
2021/04/07 01:12:03;;;;;;;8.07;4.00;;;0.60;99.90;;;;;;4156900;28;20830;-63
2021/04/07 01:14:04;;;;;;;7.00;4.00;;;0.70;99.90;;;;;;4156983;28;20282;-63
2021/04/07 01:16:06;;;;;;;8.83;4.23;;;0.70;99.90;;;;;;4156466;28;20287;-61
2021/04/07 01:18:07;;;;;;;5.20;3.07;;;0.70;99.90;;;;;;4156800;28;20321;-64
2021/04/07 01:20:11;;;;;;;9.00;3.90;;;0.70;99.90;;;;;;4156377;28;20857;-63
2021/04/07 01:22:15;;;;;;;7.33;3.53;;;0.70;99.90;;;;;;4156688;28;20738;-63
2021/04/07 01:24:16;;;;;;;5.30;3.43;;;0.60;99.90;;;;;;4156423;28;20340;-62
2021/04/07 01:26:18;;;;;;;6.90;3.90;;;0.60;99.90;;;;;;4156876;28;20389;-64
2021/04/07 01:28:19;;;;;;;11.27;4.33;;;0.60;99.90;;;;;;4156187;28;20278;-63
2021/04/07 01:30:21;;;;;;;7.83;4.20;;;0.60;99.90;;;;;;4156861;28;20295;-64
2021/04/07 01:32:22;;;;;;;7.33;3.57;;;0.70;99.90;;;;;;4155966;28;20705;-64
2021/04/07 01:34:28;;;;;;;6.20;3.70;;;0.60;99.90;;;;;;4156678;28;20267;-63
2021/04/07 01:36:29;;;;;;;9.77;3.73;;;0.60;99.90;;;;;;4156241;28;20298;-64
2021/04/07 01:38:30;;;;;;;6.63;3.77;;;0.60;99.90;;;;;;4157321;28;20271;-64
2021/04/07 01:40:33;;;;;;;5.87;3.93;;;0.60;99.90;;;;;;4155942;28;20279;-64
2021/04/07 01:42:35;;;;;;;8.53;3.60;;;0.60;99.90;;;;;;4156329;28;20278;-65
2021/04/07 01:44:38;;;;;;;8.53;4.33;;;0.60;99.90;;;;;;4154466;28;20766;-63
2021/04/07 01:46:39;;;;;;;6.07;3.53;;;0.60;99.90;;;;;;4155862;28;20317;-64
2021/04/07 01:48:41;;;;;;;7.50;2.90;;;0.70;99.90;;;;;;4155082;28;20364;-63
2021/04/07 01:50:46;;;;;;;4.87;2.70;;;0.70;99.90;;;;;;4156223;28;20337;-64
2021/04/07 01:52:47;;;;;;;3.57;2.70;;;0.70;99.90;;;;;;4156146;28;20274;-63
2021/04/07 01:54:48;;;;;;;5.23;2.77;;;0.70;99.90;;;;;;4155673;28;20755;-62
2021/04/07 01:56:54;;;;;;;4.63;2.63;;;0.80;99.90;;;;;;4155887;28;20298;-64
2021/04/07 01:59:05;;;;;;;6.63;2.50;;;0.80;99.90;;;;;;4155829;28;20345;-63
2021/04/07 02:01:06;;;;;;;4.30;2.55;;;0.80;99.90;;;;;;4156013;28;20278;-62
2021/04/07 02:03:07;;;;;;;4.07;2.90;;;0.90;99.90;;;;;;4154823;28;20084;-66
2021/04/07 02:05:09;;;;;;;7.13;2.80;;;0.90;99.90;;;;;;4156565;28;20279;-64
2021/04/07 02:07:15;;;;;;;6.37;3.30;;;0.90;99.90;;;;;;4155436;28;20278;-63
2021/04/07 02:09:21;;;;;;;6.63;3.77;;;0.80;99.90;;;;;;4156249;28;20337;-62
2021/04/07 02:11:22;;;;;;;4.83;3.13;;;0.80;99.90;;;;;;4155607;28;20254;-63
2021/04/07 02:13:23;;;;;;;9.00;3.63;;;0.90;99.90;;;;;;4156588;28;20279;-63
2021/04/07 02:15:25;;;;;;;6.27;3.73;;;0.80;99.90;;;;;;4155458;28;20259;-62
2021/04/07 02:17:26;;;;;;;9.23;4.30;;;0.80;99.90;;;;;;4156016;28;21031;-64
2021/04/07 02:19:29;;;;;;;19.07;7.67;;;0.80;99.90;;;;;;4155318;28;20275;-62
2021/04/07 02:21:30;;;;;;;14.00;8.33;;;0.80;99.90;;;;;;4139531;28;20601;-65
2021/04/07 02:23:32;;;;;;;7.57;4.27;;;0.80;99.90;;;;;;4139329;28;20329;-62
2021/04/07 02:25:33;;;;;;;7.53;4.83;;;0.80;99.90;;;;;;4140240;28;20283;-65
2021/04/07 02:27:35;;;;;;;12.67;6.93;;;0.80;99.90;;;;;;4155906;28;20333;-62
2021/04/07 02:29:37;;;;;;;15.07;6.60;;;0.80;99.90;;;;;;4156226;28;20271;-64
2021/04/07 02:31:38;;;;;;;14.30;7.43;;;0.70;99.90;;;;;;4155720;28;20285;-63
2021/04/07 02:33:39;;;;;;;14.93;6.33;;;0.70;99.90;;;;;;4155309;28;20310;-63
2021/04/07 02:35:40;;;;;;;17.63;8.90;;;0.60;99.90;;;;;;4156066;28;20337;-63
2021/04/07 02:37:41;;;;;;;13.47;6.87;;;0.50;99.90;;;;;;4155520;28;20283;-61
2021/04/07 02:39:44;;;;;;;19.67;10.20;;;0.40;99.90;;;;;;4156323;28;20759;-62
2021/04/07 02:41:45;;;;;;;34.73;17.73;;;0.30;99.90;;;;;;4155081;28;20313;-63
2021/04/07 02:43:46;;;;;;;30.93;12.73;;;0.30;99.90;;;;;;4156273;28;20316;-63
2021/04/07 02:45:47;;;;;;;15.57;7.57;;;0.20;99.90;;;;;;4155102;28;20267;-63
2021/04/07 02:47:49;;;;;;;14.10;6.73;;;0.10;99.90;;;;;;4155839;28;20332;-63
2021/04/07 02:49:50;;;;;;;19.60;8.53;;;0.10;99.90;;;;;;4155348;28;20806;-63
2021/04/07 02:51:51;;;;;;;17.63;7.80;;;0.00;99.90;;;;;;4156075;28;20267;-64
2021/04/07 02:53:53;;;;;;;43.20;18.70;;;0.00;99.90;;;;;;4155337;28;20297;-63
2021/04/07 02:55:54;;;;;;;43.07;18.83;;;0.00;99.90;;;;;;4155635;28;20263;-64
2021/04/07 02:57:55;;;;;;;24.67;10.93;;;0.00;99.90;;;;;;4155040;28;20282;-65
2021/04/07 02:59:56;;;;;;;52.67;22.07;;;0.00;99.90;;;;;;4157082;28;20317;-64
2021/04/07 03:01:57;;;;;;;25.93;13.07;;;0.00;99.90;;;;;;4158770;28;20804;-63
2021/04/07 03:03:58;;;;;;;19.70;9.07;;;0.00;99.90;;;;;;4158446;28;20270;-63
2021/04/07 03:05:59;;;;;;;11.60;5.67;;;0.00;99.90;;;;;;4158680;28;20275;-62
2021/04/07 03:08:00;;;;;;;13.07;6.00;;;0.00;99.90;;;;;;4158510;28;20309;-65
2021/04/07 03:10:02;;;;;;;20.60;8.53;;;0.00;99.90;;;;;;4158545;28;20325;-62
2021/04/07 03:12:03;;;;;;;22.33;10.07;;;0.00;99.90;;;;;;4158143;28;20306;-63
2021/04/07 03:14:05;;;;;;;14.27;6.60;;;0.00;99.90;;;;;;4157610;28;20328;-64
2021/04/07 03:16:06;;;;;;;13.80;6.87;;;0.10;99.90;;;;;;4158176;28;20290;-63
2021/04/07 03:18:07;;;;;;;16.60;6.97;;;0.10;99.90;;;;;;4158285;28;20279;-63
2021/04/07 03:20:09;;;;;;;11.23;5.80;;;0.10;99.90;;;;;;4158027;28;20313;-63
2021/04/07 03:22:10;;;;;;;11.10;5.80;;;0.10;99.90;;;;;;4159098;28;20341;-66
2021/04/07 03:24:12;;;;;;;18.33;10.07;;;0.10;99.90;;;;;;4158581;28;20278;-66
2021/04/07 03:26:13;;;;;;;20.90;11.27;;;0.10;99.90;;;;;;4158334;28;20340;-62
2021/04/07 03:28:14;;;;;;;58.50;26.57;;;0.10;99.90;;;;;;4158545;28;20283;-62
2021/04/07 03:30:17;;;;;;;70.90;25.67;;;0.10;99.90;;;;;;4158128;28;20271;-62
2021/04/07 03:32:19;;;;;;;30.83;14.10;;;0.10;99.90;;;;;;4158232;28;20344;-63
2021/04/07 03:34:20;;;;;;;24.77;11.43;;;0.10;99.90;;;;;;4158507;28;20321;-62
2021/04/07 03:36:22;;;;;;;19.47;9.93;;;0.10;99.90;;;;;;4158395;28;20710;-61
2021/04/07 03:38:23;;;;;;;41.57;17.33;;;0.10;99.90;;;;;;4157644;28;20282;-62
2021/04/07 03:40:24;;;;;;;30.80;14.30;;;0.00;99.90;;;;;;4158015;28;20317;-63
2021/04/07 03:42:25;;;;;;;23.03;9.87;;;0.10;99.90;;;;;;4157608;28;21008;-64
2021/04/07 03:44:28;;;;;;;19.40;8.80;;;0.10;99.90;;;;;;4158511;28;20305;-64
2021/04/07 03:46:29;;;;;;;32.93;13.67;;;0.10;99.90;;;;;;4157486;28;20325;-65
2021/04/07 03:48:31;;;;;;;23.03;13.13;;;0.10;99.90;;;;;;4158233;28;20271;-63
2021/04/07 03:50:32;;;;;;;22.07;11.83;;;0.10;99.90;;;;;;4157583;28;20305;-63
2021/04/07 03:52:33;;;;;;;17.90;8.37;;;0.10;99.90;;;;;;4158749;28;20739;-67
2021/04/07 03:54:36;;;;;;;10.50;5.77;;;0.10;99.90;;;;;;4157792;28;20682;-61
2021/04/07 03:56:37;;;;;;;12.33;6.57;;;0.10;99.90;;;;;;4157419;28;20834;-62
2021/04/07 03:58:38;;;;;;;10.60;5.30;;;0.10;99.90;;;;;;4157488;28;20337;-63
2021/04/07 04:00:39;;;;;;;9.73;5.37;;;0.10;99.90;;;;;;4156367;28;20278;-61
2021/04/07 04:02:42;;;;;;;11.70;5.60;;;0.10;99.90;;;;;;4157780;28;20271;-63
2021/04/07 04:04:43;;;;;;;10.63;4.57;;;0.10;99.90;;;;;;4158766;28;20642;-62
2021/04/07 04:06:45;;;;;;;9.77;5.10;;;0.10;99.90;;;;;;4158691;28;20332;-62
2021/04/07 04:08:47;;;;;;;6.60;4.07;;;0.10;99.90;;;;;;4157304;28;20328;-61
2021/04/07 04:10:48;;;;;;;9.63;4.30;;;0.10;99.90;;;;;;4156505;28;20279;-62
2021/04/07 04:12:49;;;;;;;8.87;4.50;;;0.10;99.90;;;;;;4156822;28;20278;-62
2021/04/07 04:14:50;;;;;;;8.87;4.97;;;0.10;99.90;;;;;;4158129;28;20344;-63
2021/04/07 04:16:51;;;;;;;9.20;5.20;;;0.10;99.90;;;;;;4156979;28;20904;-62
2021/04/07 04:18:53;;;;;;;9.23;4.80;;;0.20;99.90;;;;;;4157961;28;20291;-65
2021/04/07 04:20:55;;;;;;;12.67;4.40;;;0.20;99.90;;;;;;4157575;28;20279;-62
2021/04/07 04:22:56;;;;;;;9.00;4.50;;;0.20;99.90;;;;;;4158275;28;20631;-64
2021/04/07 04:24:57;;;;;;;7.77;4.90;;;0.30;99.90;;;;;;4156791;28;20793;-63
2021/04/07 04:26:58;;;;;;;8.57;4.57;;;0.30;99.90;;;;;;4157558;28;20278;-62
2021/04/07 04:28:59;;;;;;;8.77;5.00;;;0.30;99.90;;;;;;4156444;28;20689;-62
2021/04/07 04:31:00;;;;;;;14.40;7.67;;;0.40;99.90;;;;;;4156558;28;20309;-62
2021/04/07 04:33:01;;;;;;;11.00;5.17;;;0.40;99.90;;;;;;4156898;28;20270;-61
2021/04/07 04:35:05;;;;;;;10.20;4.37;;;0.40;99.90;;;;;;4156530;28;20267;-64
2021/04/07 04:37:06;;;;;;;9.40;4.80;;;0.40;99.90;;;;;;4156623;28;20337;-62
2021/04/07 04:39:07;;;;;;;8.00;4.57;;;0.40;99.90;;;;;;4156688;28;20293;-63
2021/04/07 04:41:08;;;;;;;13.60;6.03;;;0.40;99.90;;;;;;4157162;28;20333;-64
2021/04/07 04:43:09;;;;;;;12.10;6.10;;;0.40;99.90;;;;;;4155568;28;20663;-61
2021/04/07 04:45:11;;;;;;;10.07;5.10;;;0.40;99.90;;;;;;4156678;28;20317;-63
2021/04/07 04:47:12;;;;;;;12.33;4.47;;;0.40;99.90;;;;;;4156133;28;20263;-67
2021/04/07 04:49:13;;;;;;;11.00;4.90;;;0.50;99.90;;;;;;4157304;28;20309;-62
2021/04/07 04:51:15;;;;;;;9.70;4.73;;;0.50;99.90;;;;;;4155858;28;20935;-62
2021/04/07 04:53:16;;;;;;;13.77;6.70;;;0.50;99.90;;;;;;4157172;28;20309;-62
2021/04/07 04:55:17;;;;;;;8.80;4.63;;;0.50;99.90;;;;;;4156015;28;20336;-62
2021/04/07 04:57:18;;;;;;;8.63;4.40;;;0.60;99.90;;;;;;4157263;28;20299;-63
2021/04/07 04:59:19;;;;;;;8.20;4.87;;;0.60;99.90;;;;;;4155089;28;20282;-63
2021/04/07 05:01:20;;;;;;;7.33;4.67;;;0.60;99.90;;;;;;4156329;28;20275;-63
2021/04/07 05:03:21;;;;;;;7.40;3.40;;;0.60;99.90;;;;;;4155526;28;20278;-64
2021/04/07 05:05:22;;;;;;;9.57;4.87;;;0.60;99.90;;;;;;4156044;28;20278;-63
2021/04/07 05:07:23;;;;;;;9.33;4.43;;;0.70;99.90;;;;;;4155807;28;20821;-63
2021/04/07 05:09:24;;;;;;;9.77;4.27;;;0.70;99.90;;;;;;4155851;28;20271;-63
2021/04/07 05:11:26;;;;;;;8.60;4.50;;;0.70;99.90;;;;;;4155877;28;20262;-64
2021/04/07 05:13:27;;;;;;;9.37;4.17;;;0.70;99.90;;;;;;4155230;28;20286;-65
2021/04/07 05:15:28;;;;;;;7.43;4.30;;;0.80;99.90;;;;;;4156552;28;20329;-63
2021/04/07 05:17:29;;;;;;;8.80;4.17;;;0.80;99.90;;;;;;4155396;28;20709;-63
2021/04/07 05:19:30;;;;;;;9.60;4.47;;;0.90;99.90;;;;;;4156569;28;20266;-63
2021/04/07 05:21:31;;;;;;;8.37;4.17;;;0.90;99.90;;;;;;4155026;28;20313;-62
2021/04/07 05:23:33;;;;;;;12.03;4.80;;;1.00;99.90;;;;;;4156121;28;20715;-65
2021/04/07 05:25:35;;;;;;;10.27;4.73;;;1.00;99.90;;;;;;4155360;28;20325;-66
2021/04/07 05:27:36;;;;;;;11.30;4.63;;;1.10;99.90;;;;;;4156431;28;20263;-65
2021/04/07 05:29:38;;;;;;;8.53;4.13;;;1.10;99.90;;;;;;4155834;28;20333;-63
2021/04/07 05:31:39;;;;;;;10.33;4.67;;;1.20;99.90;;;;;;4156020;28;20267;-66
2021/04/07 05:33:42;;;;;;;8.30;4.83;;;1.30;99.90;;;;;;4155422;28;20290;-63
2021/04/07 05:35:43;;;;;;;11.47;4.40;;;1.30;99.90;;;;;;4155583;28;20746;-63
2021/04/07 05:37:44;;;;;;;9.87;4.13;;;1.40;99.90;;;;;;4155777;28;20294;-63
2021/04/07 05:39:45;;;;;;;9.17;5.03;;;1.40;99.90;;;;;;4155973;28;20364;-61
2021/04/07 05:41:46;;;;;;;6.97;3.70;;;1.50;99.90;;;;;;4155248;28;20409;-62
2021/04/07 05:43:47;;;;;;;8.13;3.30;;;1.50;99.90;;;;;;4155896;28;20263;-61
2021/04/07 05:45:49;;;;;;;6.60;3.83;;;1.50;99.90;;;;;;4156360;28;22181;-62
2021/04/07 05:47:50;;;;;;;9.77;4.10;;;1.40;99.90;;;;;;4155047;28;20761;-62
2021/04/07 05:49:51;;;;;;;8.60;4.00;;;1.50;99.90;;;;;;4156649;28;20340;-63
2021/04/07 05:51:53;;;;;;;8.73;4.17;;;1.50;99.90;;;;;;4155284;28;20263;-62
2021/04/07 05:53:54;;;;;;;13.00;4.67;;;1.50;99.90;;;;;;4156575;28;20328;-63
2021/04/07 05:55:56;;;;;;;7.30;4.00;;;1.60;99.90;;;;;;4153902;28;21046;-62
2021/04/07 05:57:59;;;;;;;9.20;4.20;;;1.70;99.90;;;;;;4155794;28;20302;-62
2021/04/07 06:00:00;;;;;;;11.60;4.20;;;1.70;99.90;;;;;;4155363;28;20412;-58
2021/04/07 06:02:02;;;;;;;10.43;3.90;;;1.70;99.90;;;;;;4154888;28;20316;-66
2021/04/07 06:04:03;;;;;;;11.27;4.40;;;1.80;99.90;;;;;;4154755;28;20271;-70
2021/04/07 06:06:07;;;;;;;11.77;4.67;;;1.80;99.90;;;;;;4155527;28;21340;-64
2021/04/07 06:08:09;;;;;;;9.70;4.83;;;1.90;99.90;;;;;;4155753;28;20329;-65
2021/04/07 06:10:11;;;;;;;9.47;4.77;;;1.90;99.90;;;;;;4155568;28;20801;-70
2021/04/07 06:12:12;;;;;;;7.90;4.10;;;1.90;99.90;;;;;;4154919;28;20604;-65
2021/04/07 06:14:15;;;;;;;9.47;4.60;;;1.80;99.90;;;;;;4155475;28;20353;-64
2021/04/07 06:16:16;;;;;;;7.77;3.70;;;1.80;99.90;;;;;;4155374;28;20271;-63
2021/04/07 06:18:17;;;;;;;10.57;4.00;;;1.90;99.90;;;;;;4146074;28;20357;-64
2021/04/07 06:20:19;;;;;;;5.33;3.63;;;1.80;99.90;;;;;;4144471;28;20771;-63
2021/04/07 06:22:20;;;;;;;11.67;3.87;;;1.80;99.90;;;;;;4150524;28;20820;-64
2021/04/07 06:24:21;;;;;;;9.43;4.00;;;1.80;99.90;;;;;;4155166;28;20279;-63
2021/04/07 06:26:22;;;;;;;9.87;4.00;;;1.90;99.90;;;;;;4154902;28;20631;-65
2021/04/07 06:28:23;;;;;;;8.87;3.70;;;1.90;99.90;;;;;;4162893;28;20349;-66
2021/04/07 06:30:47;;;;;;;6.97;3.47;;;2.00;99.90;;;;;;4155124;28;20384;-65
2021/04/07 06:32:48;;;;;;;7.80;3.93;;;2.00;99.90;;;;;;4155878;28;20368;-62
2021/04/07 06:34:49;;;;;;;7.40;3.73;;;2.10;99.90;;;;;;4156283;28;20278;-66
2021/04/07 06:36:51;;;;;;;8.80;4.50;;;2.10;99.90;;;;;;4158604;28;20341;-63
2021/04/07 06:38:52;;;;;;;18.43;8.13;;;2.20;99.90;;;;;;4158807;28;20275;-66
2021/04/07 06:40:54;;;;;;;9.50;5.23;;;2.30;99.90;;;;;;4158555;28;20275;-67
2021/04/07 06:43:01;;;;;;;18.80;9.27;;;2.40;99.90;;;;;;4158711;28;20325;-61
2021/04/07 06:45:04;;;;;;;12.03;5.53;;;2.50;99.90;;;;;;4158946;28;20797;-63
2021/04/07 06:47:05;;;;;;;6.53;4.13;;;2.70;99.90;;;;;;4158441;28;20320;-64
2021/04/07 06:49:08;;;;;;;11.47;4.37;;;2.80;99.90;;;;;;4158511;28;20271;-64
2021/04/07 06:51:10;;;;;;;14.00;5.23;;;2.90;99.90;;;;;;4159212;28;20329;-63
2021/04/07 06:53:11;;;;;;;11.73;4.33;;;3.00;99.90;;;;;;4157967;28;20329;-64
2021/04/07 06:55:17;;;;;;;7.53;4.10;;;3.10;99.90;;;;;;4158840;28;20275;-66
2021/04/07 06:57:18;;;;;;;6.93;3.30;;;3.20;99.80;;;;;;4158399;28;20805;-62
2021/04/07 06:59:20;;;;;;;8.97;3.53;;;3.30;99.60;;;;;;4159215;28;20333;-63
2021/04/07 07:01:21;;;;;;;6.80;3.80;;;3.40;98.70;;;;;;4157977;28;20270;-61
2021/04/07 07:03:22;;;;;;;11.67;3.97;;;3.40;98.50;;;;;;4159321;28;20278;-67
2021/04/07 07:05:23;;;;;;;8.50;3.93;;;3.50;98.20;;;;;;4157866;28;21171;-64
2021/04/07 07:07:24;;;;;;;11.50;6.40;;;3.60;98.10;;;;;;4158948;28;20274;-62
2021/04/07 07:09:25;;;;;;;7.50;4.23;;;3.70;98.10;;;;;;4158047;28;20275;-59
2021/04/07 07:11:28;;;;;;;8.00;6.07;;;3.80;98.20;;;;;;4157997;28;20274;-61
2021/04/07 07:13:29;;;;;;;9.37;3.80;;;4.00;96.00;;;;;;4158029;28;20762;-62
2021/04/07 07:15:30;;;;;;;7.30;3.70;;;4.00;96.50;;;;;;4158487;28;20747;-61
2021/04/07 07:17:34;;;;;;;11.27;4.73;;;4.20;96.80;;;;;;4157602;28;20385;-62
2021/04/07 07:19:35;;;;;;;9.23;4.27;;;4.30;95.40;;;;;;4151425;28;20279;-62
2021/04/07 07:21:36;;;;;;;11.03;6.27;;;4.40;93.40;;;;;;4152958;28;20824;-62
2021/04/07 07:23:37;;;;;;;7.80;4.13;;;4.40;93.50;;;;;;4157376;28;20278;-65
2021/04/07 07:25:39;;;;;;;4.67;3.40;;;4.50;92.60;;;;;;4156804;28;20822;-62
2021/04/07 07:27:44;;;;;;;9.30;4.17;;;4.60;92.40;;;;;;4157252;28;20796;-61
2021/04/07 07:29:54;;;;;;;9.73;3.97;;;4.60;91.80;;;;;;4158250;28;21066;-61
2021/04/07 07:32:04;;;;;;;7.72;4.10;;;4.60;90.10;;;;;;4157911;28;20743;-63
2021/04/07 07:34:06;;;;;;;12.00;4.83;;;4.60;88.50;;;;;;4171919;28;20111;-61
2021/04/07 07:36:11;;;;;;;8.80;4.87;;;4.60;88.90;;;;;;4155496;28;20282;-64
2021/04/07 07:38:20;;;;;;;6.57;3.67;;;4.70;85.50;;;;;;4157996;28;20850;-62
2021/04/07 07:40:24;;;;;;;12.90;5.37;;;4.80;84.50;;;;;;4156943;28;20832;-61
2021/04/07 07:42:29;;;;;;;20.73;7.43;;;5.00;84.10;;;;;;4158065;28;20266;-66
2021/04/07 07:44:32;;;;;;;7.70;3.87;;;5.20;84.40;;;;;;4157304;28;20267;-63
2021/04/07 07:46:36;;;;;;;9.07;4.53;;;5.40;84.50;;;;;;4155524;28;20282;-61
2021/04/07 07:48:38;;;;;;;12.77;3.70;;;5.60;83.00;;;;;;4156648;28;20286;-63
2021/04/07 07:50:49;;;;;;;4.67;2.70;;;5.80;80.50;;;;;;4156941;28;20278;-64
2021/04/07 07:52:50;;;;;;;5.65;3.05;;;6.00;74.20;;;;;;4155749;28;20825;-63
2021/04/07 07:54:51;;;;;;;9.77;2.97;;;6.10;74.60;;;;;;4169364;28;20036;-62
2021/04/07 07:56:53;;;;;;;7.37;3.33;;;6.00;75.20;;;;;;4173481;28;20307;-63
2021/04/07 07:58:55;;;;;;;4.27;2.83;;;5.90;75.00;;;;;;4172896;28;20278;-62
2021/04/07 08:01:07;;;;;;;6.67;2.80;;;5.90;74.70;;;;;;4171949;28;20274;-62
2021/04/07 08:03:09;;;;;;;4.43;3.20;;;5.80;70.80;;;;;;4173649;28;20266;-62
2021/04/07 08:05:20;;;;;;;6.57;3.20;;;5.70;71.50;;;;;;4173831;28;20270;-64
2021/04/07 08:07:23;;;;;;;9.53;3.83;;;5.70;72.40;;;;;;4173498;28;20270;-63
2021/04/07 08:09:24;;;;;;;8.07;3.33;;;5.70;73.90;;;;;;4172984;28;20297;-62
2021/04/07 08:11:26;;;;;;;8.47;4.90;;;5.60;73.80;;;;;;4172502;28;20328;-61
2021/04/07 08:13:36;;;;;;;7.13;3.67;;;5.70;73.10;;;;;;4173114;28;20760;-62
2021/04/07 08:15:38;;;;;;;27.70;8.35;;;5.90;73.40;;;;;;4173702;28;20323;-62
2021/04/07 08:17:39;;;;;;;9.53;4.37;;;6.30;73.50;;;;;;4173420;28;20044;-61
2021/04/07 08:19:41;;;;;;;6.03;3.50;;;6.60;72.40;;;;;;4173092;28;20742;-63
2021/04/07 08:21:46;;;;;;;7.17;3.00;;;6.80;71.30;;;;;;4173817;28;20277;-62
2021/04/07 08:23:54;;;;;;;8.87;4.10;;;6.90;68.70;;;;;;4173299;28;20695;-63
2021/04/07 08:25:56;;;;;;;5.17;3.10;;;7.20;68.90;;;;;;4173888;28;21263;-62
2021/04/07 08:28:00;;;;;;;13.57;4.60;;;7.20;68.30;;;;;;4173276;28;20383;-62
2021/04/07 08:30:04;;;;;;;5.80;3.30;;;7.00;66.30;;;;;;4173212;28;20266;-61
2021/04/07 08:32:06;;;;;;;8.57;3.47;;;6.90;66.50;;;;;;4172443;28;20726;-62
2021/04/07 08:34:11;;;;;;;18.57;3.57;;;6.90;65.80;;;;;;4173668;28;20808;-63
2021/04/07 08:36:18;;;;;;;13.20;4.27;;;6.90;64.60;;;;;;4172231;28;20304;-62
2021/04/07 08:38:32;;;;;;;12.20;3.50;;;7.00;63.70;;;;;;4173493;28;20351;-62
2021/04/07 08:40:42;;;;;;;10.33;2.33;;;7.00;61.80;;;;;;4172798;28;20262;-63
2021/04/07 08:42:44;;;;;;;4.27;2.37;;;7.10;62.20;;;;;;4173099;28;20269;-62
2021/04/07 08:44:46;;;;;;;9.00;3.43;;;7.20;61.90;;;;;;4172688;28;20161;-63
2021/04/07 08:46:52;;;;;;;7.43;3.00;;;7.30;60.00;;;;;;4172760;28;20266;-64
2021/04/07 08:48:53;;;;;;;14.67;6.63;;;7.40;58.90;;;;;;4172958;28;20049;-63
2021/04/07 08:51:05;;;;;;;6.33;2.20;;;7.40;58.00;;;;;;4172952;28;20110;-62
2021/04/07 08:53:15;;;;;;;6.33;2.67;;;7.40;55.00;;;;;;4171114;28;20040;-63
2021/04/07 08:55:16;;;;;;;6.37;2.93;;;7.30;53.90;;;;;;4172983;28;20120;-63
2021/04/07 08:57:44;;;;;;;7.17;2.80;;;7.20;55.30;;;;;;4171635;28;20136;-62
2021/04/07 08:59:52;;;;;;;20.27;7.57;;;7.10;53.70;;;;;;4171168;28;20048;-63
2021/04/07 09:02:06;;;;;;;12.07;5.17;;;7.00;54.70;;;;;;4170668;28;20105;-63
2021/04/07 09:04:19;;;;;;;6.57;2.40;;;6.90;55.40;;;;;;4172759;28;20048;-63
2021/04/07 09:06:25;;;;;;;4.87;2.33;;;6.90;55.10;;;;;;4172036;28;20029;-63
2021/04/07 09:08:27;;;;;;;5.23;2.40;;;7.10;55.60;;;;;;4173028;28;20025;-64
2021/04/07 09:10:58;;;;;;;13.63;2.90;;;7.10;53.30;;;;;;4172199;28;20266;-63
2021/04/07 09:12:59;;;;;;;8.80;4.22;;;6.90;51.10;;;;;;4164098;28;20324;-63
2021/04/07 09:15:11;;;;;;;4.37;2.60;;;7.00;53.40;;;;;;4172035;28;20111;-62
2021/04/07 09:17:12;;;;;;;11.23;4.93;;;7.10;53.50;;;;;;4173019;28;20021;-62
2021/04/07 09:19:19;;;;;;;4.03;2.23;;;7.20;53.60;;;;;;4171679;28;20198;-62
2021/04/07 09:21:21;;;;;;;5.77;2.53;;;7.20;53.20;;;;;;4172147;28;20161;-62
2021/04/07 09:23:29;;;;;;;10.77;4.80;;;7.20;52.50;;;;;;4172197;28;20608;-62
2021/04/07 09:25:31;;;;;;;6.93;2.93;;;7.30;53.20;;;;;;4172626;28;20098;-63
2021/04/07 09:27:32;;;;;;;5.30;2.60;;;7.30;52.30;;;;;;4172021;28;20421;-62
2021/04/07 09:29:40;;;;;;;7.07;2.60;;;7.20;50.60;;;;;;4172234;28;20036;-64
2021/04/07 09:31:42;;;;;;;5.83;2.07;;;7.20;51.10;;;;;;4172234;28;20282;-61
2021/04/07 09:33:44;;;;;;;6.30;2.43;;;6.90;50.60;;;;;;4172286;28;20041;-62
2021/04/07 09:35:57;;;;;;;4.83;2.40;;;6.80;52.30;;;;;;4171949;28;20331;-62
2021/04/07 09:38:01;;;;;;;6.67;3.43;;;6.80;51.70;;;;;;4171597;28;20048;-61
2021/04/07 09:40:03;;;;;;;4.90;2.03;;;7.00;53.10;;;;;;4172359;28;20436;-64
2021/04/07 09:42:05;;;;;;;5.73;2.60;;;7.10;52.90;;;;;;4172350;28;20078;-63
2021/04/07 09:44:09;;;;;;;12.47;3.73;;;7.20;52.80;;;;;;4170477;28;20091;-63
2021/04/07 09:46:11;;;;;;;6.60;3.20;;;7.40;52.90;;;;;;4171834;28;20091;-62
2021/04/07 09:48:12;;;;;;;8.57;3.63;;;7.50;52.70;;;;;;4172414;28;20067;-63
2021/04/07 09:50:15;;;;;;;9.63;3.90;;;7.60;51.80;;;;;;4172152;28;20043;-62
2021/04/07 09:52:16;;;;;;;6.57;2.80;;;7.50;52.10;;;;;;4172517;28;20029;-63
2021/04/07 09:54:24;;;;;;;4.23;1.97;;;7.40;52.00;;;;;;4170973;28;20491;-65
2021/04/07 09:56:25;;;;;;;3.50;1.93;;;7.30;50.60;;;;;;4172418;28;20090;-62
2021/04/07 09:58:27;;;;;;;5.97;2.40;;;7.20;51.00;;;;;;4171255;28;20143;-61
2021/04/07 10:00:33;;;;;;;5.87;2.47;;;7.20;51.30;;;;;;4172560;28;20106;-62
2021/04/07 10:02:35;;;;;;;5.53;3.23;;;7.20;52.00;;;;;;4171504;28;20452;-62
2021/04/07 10:04:39;;;;;;;9.47;2.97;;;7.10;51.50;;;;;;4171984;28;20592;-62
2021/04/07 10:06:40;;;;;;;5.23;1.97;;;7.10;52.20;;;;;;4171563;28;20097;-62
2021/04/07 10:08:41;;;;;;;11.30;2.33;;;7.10;52.00;;;;;;4171449;28;20044;-63
2021/04/07 10:10:42;;;;;;;4.83;2.53;;;6.80;49.60;;;;;;4171578;28;20082;-65
2021/04/07 10:12:44;;;;;;;4.30;2.47;;;6.70;50.40;;;;;;4171616;28;20071;-66
2021/04/07 10:14:50;;;;;;;10.40;2.77;;;6.60;47.20;;;;;;4171881;28;20106;-63
2021/04/07 10:16:51;;;;;;;3.93;2.27;;;6.40;49.80;;;;;;4171226;28;20021;-63
2021/04/07 10:18:53;;;;;;;6.97;3.97;;;6.70;51.40;;;;;;4171517;28;20324;-65
2021/04/07 10:20:55;;;;;;;6.53;2.33;;;6.80;51.70;;;;;;4171534;28;20820;-62
2021/04/07 10:22:56;;;;;;;6.87;2.77;;;6.70;48.70;;;;;;4172174;28;20064;-63
2021/04/07 10:25:11;;;;;;;13.73;2.80;;;6.40;48.50;;;;;;4171583;28;20345;-62
2021/04/07 10:27:30;;;;;;;5.20;2.23;;;6.30;50.60;;;;;;4171825;28;20075;-63
2021/04/07 10:29:33;;;;;;;4.57;2.53;;;6.20;50.10;;;;;;4171544;28;20390;-62
2021/04/07 10:31:34;;;;;;;2.10;1.87;;;6.20;50.70;;;;;;4171678;28;20053;-64
2021/04/07 10:33:36;;;;;;;5.97;3.23;;;6.10;50.20;;;;;;4171119;28;20049;-64
2021/04/07 10:35:39;;;;;;;5.80;2.77;;;6.30;50.70;;;;;;4172047;28;20282;-63
2021/04/07 10:37:50;;;;;;;5.13;2.00;;;6.50;50.80;;;;;;4170663;28;20266;-64
2021/04/07 10:39:52;;;;;;;6.20;2.30;;;6.70;48.60;;;;;;4171604;28;20300;-62
2021/04/07 10:41:54;;;;;;;3.60;2.00;;;6.80;48.90;;;;;;4171447;28;20363;-63
2021/04/07 10:43:55;;;;;;;4.43;2.30;;;6.90;49.70;;;;;;4172043;28;20528;-63